Terminal Aerodrome Forecast
Issued by NWS

Home | Current Version | Previous Version | Text Only | Print | Product List | Glossary On
Versions: 1 2 3 4 5 6 7 8 9 10 11 12 13 14 15 16 17 18 19 20 21 22 23 24 25 26 27 28 29 30 31 32 33 34
000
FTUS44 KHGX 290520
TAFCXO
TAF
KCXO 290520Z 2906/3006 VRB04KT P6SM SCT015 SCT250
     FM290900 06002KT P6SM BKN015
      TEMPO 2909/2913 4SM BR BKN008
     FM291500 07007KT P6SM BKN020 BKN200
     FM291700 07010KT P6SM VCSH SCT025 SCT035 BKN150
      TEMPO 2920/2924 TSRA BKN035CB
     FM300200 07005KT P6SM BKN120=

USA.gov is the U.S. government's official web portal to all federal, state and local government web resources and services.